Terminal Aerodrome Forecast
Issued by NWS Northern Indiana

Home | Current Version | Previous Version | Graphics & Text | Print | Product List | Glossary On
Versions: 1 2 3 4 5 6 7 8 9 10 11 12 13 14 15 16
000
FTUS43 KIWX 281700
TAFFWA
TAF
KFWA 281720Z 2818/0118 11007KT P6SM SCT025 BKN100
     FM010200 12007KT 4SM -SN BKN025 OVC040
     FM010700 VRB03KT 2SM -SN OVC010=

USA.gov is the U.S. government's official web portal to all federal, state and local government web resources and services.